Nearby METAR Reports

METAR is the scheduled surface weather observation taken hourly at civil and military airport locations.

METAR is an acronym from the French language and roughly translates as Aviation Routine Weather Report.

 

EGPL - Benbecula Island, United Kingdom
Distance from station: WNW 41mi, 66km
Updated: 19/01/2019 18:50
Mostly cloudy
Mostly cloudy
 Wind from SE
Wind: SE 1 mph , 2 km/h
Temperature: 3°C
Dew Point: 3°C
Humidity: 100%
Barometer: 1009 hPa
Clouds: Mostly cloudy
Visibility: 6 miles , 10 km
Cloud details: Few Clouds 823 m
Mostly cloudy 1006 m
2019/01/19 18:50 EGPL 191850Z AUTO 14001KT 9999 FEW027/// BKN033/// 03/03 Q1009
EGPU - Tiree Island, United Kingdom
Distance from station: SSW 56mi, 90km
Updated: 19/01/2019 18:20
Overcast
Overcast
 Wind from SE
Wind: SE 12 mph , 19 km/h
Temperature: 6°C
Wind Chill: 3°C
Dew Point: 4°C
Humidity: 87%
Barometer: 1009 hPa
Clouds: Overcast
Visibility: 6 miles , 10 km
Cloud details: Overcast 427 m
2019/01/19 18:20 EGPU 191820Z AUTO 13010KT 9999 OVC014/// 06/04 Q1009
 
EGEO - Oban Airport, United Kingdom
Distance from station: SE 65mi, 105km
Updated: 19/01/2019 13:50
NOT Current
Few Clouds
Few Clouds
 Wind from ESE
Wind: ESE 7 mph , 11 km/h
Temperature: 6°C
Wind Chill: 4°C
Dew Point: 1°C
Humidity: 71%
Barometer: 1008 hPa
Clouds: Few Clouds
Visibility: 6 miles , 10 km
Cloud details: Few Clouds 732 m
2019/01/19 13:50 EGEO 191350Z 12006KT 9999 FEW024 06/01 Q1008
EGPO - Stornoway, United Kingdom
Distance from station: 0 66mi, 106km
Updated: 19/01/2019 18:50
Clear
Clear
 Wind from calm
Wind: Calm
Temperature: 0°C
Dew Point: -1°C
Humidity: 93%
Barometer: 1009 hPa
Clouds: Clear
Visibility: 6 miles , 10 km
2019/01/19 18:50 EGPO 191850Z AUTO 00000KT 9999 NCD M00/M01 Q1009
 
EGPE - Inverness/Dalcro, United Kingdom
Distance from station: ENE 88mi, 141km
Updated: 19/01/2019 18:50
Clear
Clear
 Wind from SW
Wind: SW 2 mph , 4 km/h
Temperature: -4°C
Dew Point: -5°C
Humidity: 93%
Barometer: 1010 hPa
Summary: Clear
Visibility: greater than 7 miles , 10 km
2019/01/19 18:50 EGPE 191850Z 22002KT CAVOK M04/M05 Q1010
EGQA - Tain Range (saws, United Kingdom
Distance from station: ENE 97mi, 156km
Updated: 18/01/2019 10:50
NOT Current
Clear
Clear
 Wind from SSE
Wind: SSE 8 mph , 13 km/h
Summary: Clear
Visibility: greater than 7 miles , 10 km
2019/01/18 10:50 EGQA 181050Z 15007KT CAVOK 02/// Q1012 BLU
 
EGQK - Kinloss Raf, United Kingdom
Distance from station: ENE 107mi, 171km
Updated: 19/01/2019 17:50
Clear
Clear
 Wind from S
Wind: S 2 mph , 4 km/h
Temperature: -3°C
Dew Point: -4°C
Humidity: 93%
Barometer: 1010 hPa
Clouds: Clear
Visibility: 5 miles , 8 km
2019/01/19 17:50 EGQK 191750Z AUTO 18002KT 8000 NCD M03/M04 Q1010
EGPI - Islay/Port Ellen, United Kingdom
Distance from station: S 110mi, 177km
Updated: 19/01/2019 18:20
Overcast
Overcast
 Wind from ESE
Wind: ESE 7 mph , 11 km/h
Temperature: 4°C
Wind Chill: 1°C
Dew Point: 3°C
Humidity: 93%
Barometer: 1009 hPa
Clouds: Overcast
Visibility: 6 miles , 10 km
Cloud details: Overcast 1280 m
2019/01/19 18:20 EGPI 191820Z AUTO 11006KT 9999 OVC042/// 04/03 Q1009
 
EGQS - Lossiemouth Raf, United Kingdom
Distance from station: ENE 117mi, 188km
Updated: 19/01/2019 18:50
Clear
Clear
 Wind from SW
Wind: SW 7 mph , 11 km/h
Temperature: -3°C
Wind Chill: -7°C
Dew Point: -3°C
Humidity: 100%
Barometer: 1010 hPa
Summary: Clear
Visibility: greater than 7 miles , 10 km
2019/01/19 18:50 EGQS 191850Z 23006KT CAVOK M03/M03 Q1010 BLU
EGPF - Glasgow Airport, United Kingdom
Distance from station: SE 121mi, 195km
Updated: 19/01/2019 18:50
Overcast
Overcast
 Wind from ENE
Wind: ENE 5 mph , 7 km/h
Temperature: 3°C
Wind Chill: 1°C
Dew Point: 1°C
Humidity: 87%
Barometer: 1011 hPa
Clouds: Overcast
Visibility: 6 miles , 9 km
Cloud details: Overcast 396 m
2019/01/19 18:50 EGPF 191850Z AUTO 06004KT 030V100 9000 OVC013 03/01 Q1011
 
EGEC - Campbeltown, United Kingdom
Distance from station: SSE 129mi, 207km
Updated: 18/01/2019 17:20
NOT Current
Rain, Overcast
Rain, Overcast
 Wind from E
Wind: E 18 mph , 30 km/h
Temperature: 4°C
Wind Chill: -1°C
Dew Point: 4°C
Humidity: 100%
Barometer: 1005 hPa
Summary: Rain
Clouds: Overcast
Visibility: 5 miles , 8 km
Cloud details: Overcast 183 m
2019/01/18 17:20 EGEC 181720Z 10016KT 8000 RA OVC006 04/04 Q1005
EGPN - Dundee/Riverside, United Kingdom
Distance from station: ESE 137mi, 221km
Updated: 19/01/2019 15:50
NOT Current
Mostly cloudy
Mostly cloudy
 Wind from WSW
Wind: WSW 3 mph , 6 km/h
Temperature: 4°C
Dew Point: 2°C
Humidity: 87%
Barometer: 1009 hPa
Clouds: Mostly cloudy
Visibility: 4 miles , 6 km
Cloud details: Mostly cloudy 671 m
2019/01/19 15:50 EGPN 191550Z 24003KT 6000 BKN022 04/02 Q1009
 
EGPK - Prestwick(Civ/Na, United Kingdom
Distance from station: SSE 139mi, 224km
Updated: 19/01/2019 18:50
Mostly cloudy
Mostly cloudy
 Wind from NE
Wind: NE 6 mph , 9 km/h
Temperature: 3°C
Wind Chill: 0°C
Dew Point: 1°C
Humidity: 87%
Barometer: 1010 hPa
Clouds: Mostly cloudy
Visibility: 6 miles , 10 km
Cloud details: Mostly cloudy 396 m
2019/01/19 18:50 EGPK 191850Z 05005KT 9999 BKN013 03/01 Q1010
EGQL - Leuchars Raf, United Kingdom
Distance from station: ESE 145mi, 233km
Updated: 19/01/2019 18:50
Haze, Overcast
Haze, Overcast
 Wind from W
Wind: W 5 mph , 7 km/h
Temperature: 3°C
Wind Chill: 1°C
Dew Point: 2°C
Humidity: 93%
Barometer: 1010 hPa
Summary: Haze
Clouds: Overcast
Visibility: 5 miles , 8 km
Cloud details: Overcast 549 m
2019/01/19 18:50 EGQL 191850Z 26004KT 8000 HZ OVC018 03/02 Q1010 WHT
 
EGPH - Edinburgh Airpor, United Kingdom
Distance from station: SE 145mi, 234km
Updated: 19/01/2019 18:50
Mostly cloudy
Mostly cloudy
 Wind from S
Wind: S 3 mph , 6 km/h
Temperature: 3°C
Dew Point: 1°C
Humidity: 87%
Barometer: 1010 hPa
Clouds: Mostly cloudy
Visibility: 6 miles , 10 km
Cloud details: Mostly cloudy 457 m
2019/01/19 18:50 EGPH 191850Z 17003KT 9999 BKN015 03/01 Q1010
EGPC - Wick, United Kingdom
Distance from station: NE 146mi, 234km
Updated: 19/01/2019 18:50
Light rain, Few clouds
Light rain, Few clouds
 Wind from S
Wind: S 5 mph , 7 km/h
Temperature: 3°C
Wind Chill: 1°C
Dew Point: 1°C
Humidity: 87%
Barometer: 1010 hPa
Summary: Light rain
Clouds: Few Clouds
Visibility: 6 miles , 10 km
Cloud details: Few Clouds 518 m
2019/01/19 18:50 EGPC 191850Z AUTO 19004KT 9999 -RA FEW017/// 03/01 Q1010

-

free counters
QR Code Twitter Scottish Weather Network UK Weather Network
Argyll House B & B

Argyll House B & B is situated in North West Skye and is the perfect base to see all that the Isle of Skye has to offer.
We are now full for 2018 - Bookings been taken for 2019.